sensor_id;sensor_type;location;lat;lon;timestamp;P1;durP1;ratioP1;P2;durP2;ratioP2
46563;SDS011;32291;52.010;4.446;2023-08-06T00:00:56;11.02;;;9.98;;
46563;SDS011;32291;52.010;4.446;2023-08-06T00:02:04;13.30;;;10.40;;
46563;SDS011;32291;52.010;4.446;2023-08-06T00:03:06;10.43;;;9.63;;
46563;SDS011;32291;52.010;4.446;2023-08-06T00:04:08;12.73;;;11.50;;
46563;SDS011;32291;52.010;4.446;2023-08-06T00:05:19;12.10;;;11.00;;
46563;SDS011;32291;52.010;4.446;2023-08-06T00:06:27;10.95;;;9.95;;
46563;SDS011;32291;52.010;4.446;2023-08-06T00:07:34;12.10;;;11.02;;
46563;SDS011;32291;52.010;4.446;2023-08-06T00:08:40;11.55;;;10.50;;
46563;SDS011;32291;52.010;4.446;2023-08-06T00:09:47;11.95;;;10.80;;
46563;SDS011;32291;52.010;4.446;2023-08-06T00:10:49;11.60;;;10.60;;
46563;SDS011;32291;52.010;4.446;2023-08-06T00:11:56;12.10;;;10.90;;
46563;SDS011;32291;52.010;4.446;2023-08-06T00:12:58;11.77;;;10.73;;
46563;SDS011;32291;52.010;4.446;2023-08-06T00:14:00;10.63;;;9.82;;
46563;SDS011;32291;52.010;4.446;2023-08-06T00:15:02;11.32;;;10.23;;
46563;SDS011;32291;52.010;4.446;2023-08-06T00:16:11;10.50;;;9.52;;
46563;SDS011;32291;52.010;4.446;2023-08-06T00:17:19;12.00;;;10.98;;
46563;SDS011;32291;52.010;4.446;2023-08-06T00:18:26;12.18;;;10.85;;
46563;SDS011;32291;52.010;4.446;2023-08-06T00:19:33;11.55;;;10.55;;
46563;SDS011;32291;52.010;4.446;2023-08-06T00:20:40;13.25;;;11.10;;
46563;SDS011;32291;52.010;4.446;2023-08-06T00:21:47;12.13;;;10.88;;
46563;SDS011;32291;52.010;4.446;2023-08-06T00:22:49;11.18;;;10.18;;
46563;SDS011;32291;52.010;4.446;2023-08-06T00:23:56;10.85;;;9.75;;
46563;SDS011;32291;52.010;4.446;2023-08-06T00:25:04;10.48;;;9.45;;
46563;SDS011;32291;52.010;4.446;2023-08-06T00:26:12;12.93;;;11.82;;
46563;SDS011;32291;52.010;4.446;2023-08-06T00:27:18;11.70;;;10.45;;
46563;SDS011;32291;52.010;4.446;2023-08-06T00:28:25;12.10;;;11.05;;
46563;SDS011;32291;52.010;4.446;2023-08-06T00:29:32;11.85;;;10.65;;
46563;SDS011;32291;52.010;4.446;2023-08-06T00:30:39;11.40;;;10.38;;
46563;SDS011;32291;52.010;4.446;2023-08-06T00:31:41;12.10;;;10.95;;
46563;SDS011;32291;52.010;4.446;2023-08-06T00:32:48;11.90;;;10.80;;
46563;SDS011;32291;52.010;4.446;2023-08-06T00:33:55;11.82;;;10.73;;
46563;SDS011;32291;52.010;4.446;2023-08-06T00:35:01;12.18;;;10.98;;
46563;SDS011;32291;52.010;4.446;2023-08-06T00:36:09;11.40;;;10.40;;
46563;SDS011;32291;52.010;4.446;2023-08-06T00:37:17;13.35;;;12.05;;
46563;SDS011;32291;52.010;4.446;2023-08-06T00:38:24;11.40;;;10.45;;
46563;SDS011;32291;52.010;4.446;2023-08-06T00:39:31;12.60;;;11.48;;
46563;SDS011;32291;52.010;4.446;2023-08-06T00:40:37;12.38;;;11.35;;
46563;SDS011;32291;52.010;4.446;2023-08-06T00:41:44;13.93;;;12.40;;
46563;SDS011;32291;52.010;4.446;2023-08-06T00:42:53;12.55;;;11.40;;
46563;SDS011;32291;52.010;4.446;2023-08-06T00:44:00;11.05;;;10.13;;
46563;SDS011;32291;52.010;4.446;2023-08-06T00:45:07;12.25;;;11.10;;
46563;SDS011;32291;52.010;4.446;2023-08-06T00:46:14;12.73;;;11.52;;
46563;SDS011;32291;52.010;4.446;2023-08-06T00:47:17;12.90;;;11.70;;
46563;SDS011;32291;52.010;4.446;2023-08-06T00:48:19;12.82;;;11.48;;
46563;SDS011;32291;52.010;4.446;2023-08-06T00:49:22;12.52;;;11.43;;
46563;SDS011;32291;52.010;4.446;2023-08-06T00:50:29;12.60;;;11.40;;
46563;SDS011;32291;52.010;4.446;2023-08-06T00:51:37;12.55;;;11.45;;
46563;SDS011;32291;52.010;4.446;2023-08-06T00:52:44;11.20;;;10.18;;
46563;SDS011;32291;52.010;4.446;2023-08-06T00:53:49;13.18;;;11.98;;
46563;SDS011;32291;52.010;4.446;2023-08-06T00:54:58;12.18;;;10.90;;
46563;SDS011;32291;52.010;4.446;2023-08-06T00:56:05;12.05;;;10.88;;
46563;SDS011;32291;52.010;4.446;2023-08-06T00:57:15;13.23;;;11.85;;
46563;SDS011;32291;52.010;4.446;2023-08-06T00:58:22;14.20;;;11.73;;
46563;SDS011;32291;52.010;4.446;2023-08-06T00:59:29;12.23;;;11.13;;
46563;SDS011;32291;52.010;4.446;2023-08-06T01:00:33;12.23;;;11.13;;
46563;SDS011;32291;52.010;4.446;2023-08-06T01:01:40;11.23;;;10.23;;
46563;SDS011;32291;52.010;4.446;2023-08-06T01:02:48;13.38;;;11.93;;
46563;SDS011;32291;52.010;4.446;2023-08-06T01:03:55;12.18;;;11.05;;
46563;SDS011;32291;52.010;4.446;2023-08-06T01:05:02;12.65;;;11.45;;
46563;SDS011;32291;52.010;4.446;2023-08-06T01:06:10;13.27;;;12.02;;
46563;SDS011;32291;52.010;4.446;2023-08-06T01:07:19;12.77;;;11.45;;
46563;SDS011;32291;52.010;4.446;2023-08-06T01:09:06;12.75;;;11.60;;
46563;SDS011;32291;52.010;4.446;2023-08-06T01:13:47;12.68;;;10.73;;
46563;SDS011;32291;52.010;4.446;2023-08-06T01:15:24;12.32;;;11.13;;
46563;SDS011;32291;52.010;4.446;2023-08-06T01:16:41;11.55;;;10.45;;
46563;SDS011;32291;52.010;4.446;2023-08-06T01:17:48;13.23;;;12.02;;
46563;SDS011;32291;52.010;4.446;2023-08-06T01:18:56;11.98;;;10.88;;
46563;SDS011;32291;52.010;4.446;2023-08-06T01:20:00;11.32;;;10.32;;
46563;SDS011;32291;52.010;4.446;2023-08-06T01:21:06;11.88;;;10.68;;
46563;SDS011;32291;52.010;4.446;2023-08-06T01:22:13;10.77;;;9.68;;
46563;SDS011;32291;52.010;4.446;2023-08-06T01:23:20;14.32;;;13.02;;
46563;SDS011;32291;52.010;4.446;2023-08-06T01:24:28;13.35;;;12.15;;
46563;SDS011;32291;52.010;4.446;2023-08-06T01:25:47;12.68;;;11.38;;
46563;SDS011;32291;52.010;4.446;2023-08-06T01:27:22;12.05;;;10.93;;
46563;SDS011;32291;52.010;4.446;2023-08-06T01:29:07;13.02;;;11.27;;
46563;SDS011;32291;52.010;4.446;2023-08-06T01:30:27;11.20;;;10.20;;
46563;SDS011;32291;52.010;4.446;2023-08-06T01:31:43;11.20;;;10.20;;
46563;SDS011;32291;52.010;4.446;2023-08-06T01:32:58;11.57;;;9.77;;
46563;SDS011;32291;52.010;4.446;2023-08-06T01:34:11;11.10;;;10.10;;
46563;SDS011;32291;52.010;4.446;2023-08-06T01:35:22;12.23;;;10.88;;
46563;SDS011;32291;52.010;4.446;2023-08-06T01:36:26;11.40;;;10.30;;
46563;SDS011;32291;52.010;4.446;2023-08-06T01:37:34;12.35;;;11.18;;
46563;SDS011;32291;52.010;4.446;2023-08-06T01:38:37;12.13;;;11.02;;
46563;SDS011;32291;52.010;4.446;2023-08-06T01:39:40;11.98;;;10.90;;
46563;SDS011;32291;52.010;4.446;2023-08-06T01:40:49;13.20;;;11.85;;
46563;SDS011;32291;52.010;4.446;2023-08-06T01:41:56;14.07;;;11.70;;
46563;SDS011;32291;52.010;4.446;2023-08-06T01:42:58;13.05;;;11.65;;
46563;SDS011;32291;52.010;4.446;2023-08-06T01:44:05;12.00;;;10.80;;
46563;SDS011;32291;52.010;4.446;2023-08-06T01:45:08;12.57;;;11.38;;
46563;SDS011;32291;52.010;4.446;2023-08-06T01:46:11;11.85;;;10.65;;
46563;SDS011;32291;52.010;4.446;2023-08-06T01:47:18;11.90;;;10.70;;
46563;SDS011;32291;52.010;4.446;2023-08-06T01:48:20;12.55;;;10.75;;
46563;SDS011;32291;52.010;4.446;2023-08-06T01:49:22;11.68;;;10.52;;
46563;SDS011;32291;52.010;4.446;2023-08-06T01:50:29;11.35;;;10.25;;
46563;SDS011;32291;52.010;4.446;2023-08-06T01:51:36;11.57;;;10.48;;
46563;SDS011;32291;52.010;4.446;2023-08-06T01:52:38;11.38;;;10.15;;
46563;SDS011;32291;52.010;4.446;2023-08-06T01:53:45;12.88;;;10.63;;
46563;SDS011;32291;52.010;4.446;2023-08-06T01:54:52;12.05;;;10.38;;
46563;SDS011;32291;52.010;4.446;2023-08-06T01:55:58;11.18;;;10.07;;
46563;SDS011;32291;52.010;4.446;2023-08-06T01:57:05;12.45;;;10.32;;
46563;SDS011;32291;52.010;4.446;2023-08-06T01:58:12;11.38;;;10.25;;
46563;SDS011;32291;52.010;4.446;2023-08-06T01:59:19;12.52;;;9.75;;
46563;SDS011;32291;52.010;4.446;2023-08-06T02:00:26;9.77;;;8.77;;
46563;SDS011;32291;52.010;4.446;2023-08-06T02:01:30;10.52;;;9.43;;
46563;SDS011;32291;52.010;4.446;2023-08-06T02:02:37;12.38;;;8.93;;
46563;SDS011;32291;52.010;4.446;2023-08-06T02:03:44;10.23;;;8.88;;
46563;SDS011;32291;52.010;4.446;2023-08-06T02:04:48;9.50;;;8.52;;
46563;SDS011;32291;52.010;4.446;2023-08-06T02:05:55;9.38;;;8.35;;
46563;SDS011;32291;52.010;4.446;2023-08-06T02:06:57;8.68;;;7.82;;
46563;SDS011;32291;52.010;4.446;2023-08-06T02:08:00;8.23;;;7.47;;
46563;SDS011;32291;52.010;4.446;2023-08-06T02:09:02;7.90;;;7.05;;
46563;SDS011;32291;52.010;4.446;2023-08-06T02:10:09;8.88;;;7.45;;
46563;SDS011;32291;52.010;4.446;2023-08-06T02:11:16;8.75;;;7.82;;
46563;SDS011;32291;52.010;4.446;2023-08-06T02:12:24;7.22;;;6.53;;
46563;SDS011;32291;52.010;4.446;2023-08-06T02:13:31;7.53;;;6.72;;
46563;SDS011;32291;52.010;4.446;2023-08-06T02:14:38;7.40;;;6.40;;
46563;SDS011;32291;52.010;4.446;2023-08-06T02:15:45;6.93;;;6.22;;
46563;SDS011;32291;52.010;4.446;2023-08-06T02:16:55;6.65;;;6.03;;
46563;SDS011;32291;52.010;4.446;2023-08-06T02:18:02;6.35;;;5.75;;
46563;SDS011;32291;52.010;4.446;2023-08-06T02:19:04;7.10;;;5.90;;
46563;SDS011;32291;52.010;4.446;2023-08-06T02:20:11;5.75;;;5.25;;
46563;SDS011;32291;52.010;4.446;2023-08-06T02:21:13;5.68;;;5.07;;
46563;SDS011;32291;52.010;4.446;2023-08-06T02:22:15;5.45;;;4.95;;
46563;SDS011;32291;52.010;4.446;2023-08-06T02:23:22;5.18;;;4.68;;
46563;SDS011;32291;52.010;4.446;2023-08-06T02:24:29;4.85;;;4.43;;
46563;SDS011;32291;52.010;4.446;2023-08-06T02:25:31;5.93;;;4.78;;
46563;SDS011;32291;52.010;4.446;2023-08-06T02:26:33;5.85;;;4.90;;
46563;SDS011;32291;52.010;4.446;2023-08-06T02:27:35;6.07;;;5.13;;
46563;SDS011;32291;52.010;4.446;2023-08-06T02:28:43;5.13;;;4.63;;
46563;SDS011;32291;52.010;4.446;2023-08-06T02:29:50;5.40;;;4.93;;
46563;SDS011;32291;52.010;4.446;2023-08-06T02:30:57;5.75;;;5.20;;
46563;SDS011;32291;52.010;4.446;2023-08-06T02:32:04;5.30;;;4.80;;
46563;SDS011;32291;52.010;4.446;2023-08-06T02:33:07;6.13;;;4.65;;
46563;SDS011;32291;52.010;4.446;2023-08-06T02:34:14;5.55;;;5.00;;
46563;SDS011;32291;52.010;4.446;2023-08-06T02:35:22;7.20;;;5.38;;
46563;SDS011;32291;52.010;4.446;2023-08-06T02:36:29;6.00;;;5.47;;
46563;SDS011;32291;52.010;4.446;2023-08-06T02:37:35;6.75;;;5.03;;
46563;SDS011;32291;52.010;4.446;2023-08-06T02:38:42;7.60;;;5.80;;
46563;SDS011;32291;52.010;4.446;2023-08-06T02:39:45;6.88;;;5.72;;
46563;SDS011;32291;52.010;4.446;2023-08-06T02:40:52;7.38;;;5.25;;
46563;SDS011;32291;52.010;4.446;2023-08-06T02:41:58;5.97;;;5.38;;
46563;SDS011;32291;52.010;4.446;2023-08-06T02:43:05;5.22;;;4.65;;
46563;SDS011;32291;52.010;4.446;2023-08-06T02:44:12;6.45;;;4.95;;
46563;SDS011;32291;52.010;4.446;2023-08-06T02:45:19;5.63;;;4.07;;
46563;SDS011;32291;52.010;4.446;2023-08-06T02:46:21;4.93;;;3.75;;
46563;SDS011;32291;52.010;4.446;2023-08-06T02:47:28;3.80;;;3.38;;
46563;SDS011;32291;52.010;4.446;2023-08-06T02:48:35;5.22;;;3.55;;
46563;SDS011;32291;52.010;4.446;2023-08-06T02:49:42;3.53;;;3.10;;
46563;SDS011;32291;52.010;4.446;2023-08-06T02:50:52;5.68;;;3.60;;
46563;SDS011;32291;52.010;4.446;2023-08-06T02:51:59;4.32;;;2.90;;
46563;SDS011;32291;52.010;4.446;2023-08-06T02:53:06;3.05;;;2.55;;
46563;SDS011;32291;52.010;4.446;2023-08-06T02:54:14;3.45;;;2.50;;
46563;SDS011;32291;52.010;4.446;2023-08-06T02:55:21;4.53;;;2.10;;
46563;SDS011;32291;52.010;4.446;2023-08-06T02:56:28;4.10;;;1.77;;
46563;SDS011;32291;52.010;4.446;2023-08-06T02:57:30;2.95;;;1.60;;
46563;SDS011;32291;52.010;4.446;2023-08-06T02:58:37;7.22;;;2.08;;
46563;SDS011;32291;52.010;4.446;2023-08-06T02:59:44;5.00;;;2.15;;
46563;SDS011;32291;52.010;4.446;2023-08-06T03:01:01;4.75;;;1.52;;
46563;SDS011;32291;52.010;4.446;2023-08-06T03:02:13;3.22;;;1.92;;
46563;SDS011;32291;52.010;4.446;2023-08-06T03:03:15;3.53;;;1.67;;
46563;SDS011;32291;52.010;4.446;2023-08-06T03:04:23;1.58;;;1.20;;
46563;SDS011;32291;52.010;4.446;2023-08-06T03:05:25;4.15;;;1.50;;
46563;SDS011;32291;52.010;4.446;2023-08-06T03:06:32;2.42;;;1.42;;
46563;SDS011;32291;52.010;4.446;2023-08-06T03:07:39;1.77;;;1.60;;
46563;SDS011;32291;52.010;4.446;2023-08-06T03:08:41;1.63;;;1.50;;
46563;SDS011;32291;52.010;4.446;2023-08-06T03:09:48;3.20;;;1.73;;
46563;SDS011;32291;52.010;4.446;2023-08-06T03:10:55;3.22;;;1.95;;
46563;SDS011;32291;52.010;4.446;2023-08-06T03:12:02;2.83;;;2.15;;
46563;SDS011;32291;52.010;4.446;2023-08-06T03:13:04;6.95;;;2.95;;
46563;SDS011;32291;52.010;4.446;2023-08-06T03:14:11;3.88;;;3.30;;
46563;SDS011;32291;52.010;4.446;2023-08-06T03:15:18;3.97;;;2.97;;
46563;SDS011;32291;52.010;4.446;2023-08-06T03:16:25;5.88;;;4.57;;
46563;SDS011;32291;52.010;4.446;2023-08-06T03:17:31;6.40;;;5.03;;
46563;SDS011;32291;52.010;4.446;2023-08-06T03:18:38;7.18;;;5.78;;
46563;SDS011;32291;52.010;4.446;2023-08-06T03:19:45;6.90;;;5.97;;
46563;SDS011;32291;52.010;4.446;2023-08-06T03:20:55;7.00;;;5.88;;
46563;SDS011;32291;52.010;4.446;2023-08-06T03:22:03;7.53;;;6.00;;
46563;SDS011;32291;52.010;4.446;2023-08-06T03:23:10;9.75;;;8.32;;
46563;SDS011;32291;52.010;4.446;2023-08-06T03:24:16;9.40;;;7.75;;
46563;SDS011;32291;52.010;4.446;2023-08-06T03:25:23;10.80;;;8.10;;
46563;SDS011;32291;52.010;4.446;2023-08-06T03:26:30;9.57;;;8.55;;
46563;SDS011;32291;52.010;4.446;2023-08-06T03:27:37;9.05;;;7.78;;
46563;SDS011;32291;52.010;4.446;2023-08-06T03:28:44;10.65;;;8.73;;
46563;SDS011;32291;52.010;4.446;2023-08-06T03:29:49;10.90;;;8.70;;
46563;SDS011;32291;52.010;4.446;2023-08-06T03:31:02;10.35;;;8.48;;
46563;SDS011;32291;52.010;4.446;2023-08-06T03:32:10;11.07;;;9.07;;
46563;SDS011;32291;52.010;4.446;2023-08-06T03:33:12;10.88;;;9.77;;
46563;SDS011;32291;52.010;4.446;2023-08-06T03:34:18;12.00;;;9.45;;
46563;SDS011;32291;52.010;4.446;2023-08-06T03:35:21;11.65;;;10.05;;
46563;SDS011;32291;52.010;4.446;2023-08-06T03:36:28;13.55;;;10.43;;
46563;SDS011;32291;52.010;4.446;2023-08-06T03:37:35;14.77;;;11.43;;
46563;SDS011;32291;52.010;4.446;2023-08-06T03:38:42;14.57;;;12.52;;
46563;SDS011;32291;52.010;4.446;2023-08-06T03:39:44;16.23;;;13.30;;
46563;SDS011;32291;52.010;4.446;2023-08-06T03:40:54;16.70;;;12.90;;
46563;SDS011;32291;52.010;4.446;2023-08-06T03:42:00;14.82;;;12.20;;
46563;SDS011;32291;52.010;4.446;2023-08-06T03:43:03;16.48;;;13.15;;
46563;SDS011;32291;52.010;4.446;2023-08-06T03:44:05;17.35;;;13.45;;
46563;SDS011;32291;52.010;4.446;2023-08-06T03:45:07;14.43;;;12.48;;
46563;SDS011;32291;52.010;4.446;2023-08-06T03:46:15;15.25;;;12.60;;
46563;SDS011;32291;52.010;4.446;2023-08-06T03:47:23;15.73;;;13.20;;
46563;SDS011;32291;52.010;4.446;2023-08-06T03:48:30;14.20;;;12.70;;
46563;SDS011;32291;52.010;4.446;2023-08-06T03:49:37;16.52;;;14.07;;
46563;SDS011;32291;52.010;4.446;2023-08-06T03:50:44;17.65;;;14.23;;
46563;SDS011;32291;52.010;4.446;2023-08-06T03:51:52;19.52;;;13.77;;
46563;SDS011;32291;52.010;4.446;2023-08-06T03:52:58;17.27;;;13.63;;
46563;SDS011;32291;52.010;4.446;2023-08-06T03:54:05;14.07;;;12.10;;
46563;SDS011;32291;52.010;4.446;2023-08-06T03:55:12;11.23;;;9.10;;
46563;SDS011;32291;52.010;4.446;2023-08-06T03:56:19;10.80;;;9.48;;
46563;SDS011;32291;52.010;4.446;2023-08-06T03:57:26;9.43;;;8.55;;
46563;SDS011;32291;52.010;4.446;2023-08-06T03:58:32;11.15;;;9.07;;
46563;SDS011;32291;52.010;4.446;2023-08-06T03:59:39;10.30;;;9.20;;
46563;SDS011;32291;52.010;4.446;2023-08-06T04:00:46;11.15;;;9.73;;
46563;SDS011;32291;52.010;4.446;2023-08-06T04:01:53;11.27;;;8.45;;
46563;SDS011;32291;52.010;4.446;2023-08-06T04:03:00;8.90;;;7.70;;
46563;SDS011;32291;52.010;4.446;2023-08-06T04:04:07;12.63;;;8.65;;
46563;SDS011;32291;52.010;4.446;2023-08-06T04:05:13;11.63;;;7.43;;
46563;SDS011;32291;52.010;4.446;2023-08-06T04:06:20;11.60;;;8.25;;
46563;SDS011;32291;52.010;4.446;2023-08-06T04:07:27;13.93;;;7.70;;
46563;SDS011;32291;52.010;4.446;2023-08-06T04:08:34;10.23;;;7.18;;
46563;SDS011;32291;52.010;4.446;2023-08-06T04:09:54;9.38;;;6.90;;
46563;SDS011;32291;52.010;4.446;2023-08-06T04:11:07;7.72;;;6.93;;
46563;SDS011;32291;52.010;4.446;2023-08-06T04:12:09;9.38;;;7.15;;
46563;SDS011;32291;52.010;4.446;2023-08-06T04:13:19;9.82;;;7.03;;
46563;SDS011;32291;52.010;4.446;2023-08-06T04:14:26;11.27;;;7.03;;
46563;SDS011;32291;52.010;4.446;2023-08-06T04:15:34;9.18;;;7.07;;
46563;SDS011;32291;52.010;4.446;2023-08-06T04:16:36;10.55;;;7.18;;
46563;SDS011;32291;52.010;4.446;2023-08-06T04:17:43;10.50;;;6.63;;
46563;SDS011;32291;52.010;4.446;2023-08-06T04:18:45;8.38;;;6.40;;
46563;SDS011;32291;52.010;4.446;2023-08-06T04:19:51;6.78;;;5.85;;
46563;SDS011;32291;52.010;4.446;2023-08-06T04:21:01;10.93;;;6.05;;
46563;SDS011;32291;52.010;4.446;2023-08-06T04:22:08;9.50;;;6.53;;
46563;SDS011;32291;52.010;4.446;2023-08-06T04:23:15;9.05;;;5.90;;
46563;SDS011;32291;52.010;4.446;2023-08-06T04:24:22;9.27;;;6.53;;
46563;SDS011;32291;52.010;4.446;2023-08-06T04:25:29;10.18;;;6.28;;
46563;SDS011;32291;52.010;4.446;2023-08-06T04:26:36;9.60;;;6.28;;
46563;SDS011;32291;52.010;4.446;2023-08-06T04:27:38;10.25;;;6.55;;
46563;SDS011;32291;52.010;4.446;2023-08-06T04:28:47;9.48;;;5.93;;
46563;SDS011;32291;52.010;4.446;2023-08-06T04:29:54;8.98;;;5.95;;
46563;SDS011;32291;52.010;4.446;2023-08-06T04:31:01;8.43;;;6.20;;
46563;SDS011;32291;52.010;4.446;2023-08-06T04:32:09;8.43;;;5.85;;
46563;SDS011;32291;52.010;4.446;2023-08-06T04:33:16;10.25;;;6.63;;
46563;SDS011;32291;52.010;4.446;2023-08-06T04:34:18;12.13;;;6.78;;
46563;SDS011;32291;52.010;4.446;2023-08-06T04:35:25;8.50;;;6.32;;
46563;SDS011;32291;52.010;4.446;2023-08-06T04:36:32;9.18;;;6.28;;
46563;SDS011;32291;52.010;4.446;2023-08-06T04:37:39;8.23;;;6.43;;
46563;SDS011;32291;52.010;4.446;2023-08-06T04:38:41;10.40;;;6.45;;
46563;SDS011;32291;52.010;4.446;2023-08-06T04:39:51;8.80;;;6.40;;
46563;SDS011;32291;52.010;4.446;2023-08-06T04:40:58;7.60;;;6.15;;
46563;SDS011;32291;52.010;4.446;2023-08-06T04:42:00;8.60;;;6.55;;
46563;SDS011;32291;52.010;4.446;2023-08-06T04:43:07;8.05;;;6.50;;
46563;SDS011;32291;52.010;4.446;2023-08-06T04:44:13;11.15;;;6.53;;
46563;SDS011;32291;52.010;4.446;2023-08-06T04:45:20;8.95;;;7.10;;
46563;SDS011;32291;52.010;4.446;2023-08-06T04:46:22;10.20;;;6.75;;
46563;SDS011;32291;52.010;4.446;2023-08-06T04:47:29;9.57;;;7.03;;
46563;SDS011;32291;52.010;4.446;2023-08-06T04:48:36;11.75;;;7.43;;
46563;SDS011;32291;52.010;4.446;2023-08-06T04:49:43;10.60;;;7.28;;
46563;SDS011;32291;52.010;4.446;2023-08-06T04:50:50;13.73;;;7.80;;
46563;SDS011;32291;52.010;4.446;2023-08-06T04:51:57;7.90;;;7.10;;
46563;SDS011;32291;52.010;4.446;2023-08-06T04:53:03;8.30;;;7.40;;
46563;SDS011;32291;52.010;4.446;2023-08-06T04:54:10;10.27;;;6.75;;
46563;SDS011;32291;52.010;4.446;2023-08-06T04:55:17;11.93;;;7.00;;
46563;SDS011;32291;52.010;4.446;2023-08-06T04:56:19;8.85;;;7.28;;
46563;SDS011;32291;52.010;4.446;2023-08-06T04:57:26;8.30;;;7.43;;
46563;SDS011;32291;52.010;4.446;2023-08-06T04:58:28;11.38;;;6.68;;
46563;SDS011;32291;52.010;4.446;2023-08-06T04:59:35;10.10;;;7.78;;
46563;SDS011;32291;52.010;4.446;2023-08-06T05:00:42;12.13;;;7.88;;
46563;SDS011;32291;52.010;4.446;2023-08-06T05:01:44;11.63;;;7.60;;
46563;SDS011;32291;52.010;4.446;2023-08-06T05:02:47;10.82;;;7.78;;
46563;SDS011;32291;52.010;4.446;2023-08-06T05:03:54;9.50;;;7.95;;
46563;SDS011;32291;52.010;4.446;2023-08-06T05:04:56;11.57;;;7.35;;
46563;SDS011;32291;52.010;4.446;2023-08-06T05:05:58;10.18;;;7.97;;
46563;SDS011;32291;52.010;4.446;2023-08-06T05:07:05;10.40;;;8.00;;
46563;SDS011;32291;52.010;4.446;2023-08-06T05:08:15;12.13;;;8.45;;
46563;SDS011;32291;52.010;4.446;2023-08-06T05:09:25;12.65;;;8.77;;
46563;SDS011;32291;52.010;4.446;2023-08-06T05:10:27;11.25;;;8.15;;
46563;SDS011;32291;52.010;4.446;2023-08-06T05:11:34;11.25;;;8.60;;
46563;SDS011;32291;52.010;4.446;2023-08-06T05:12:36;13.25;;;8.32;;
46563;SDS011;32291;52.010;4.446;2023-08-06T05:13:43;13.30;;;8.25;;
46563;SDS011;32291;52.010;4.446;2023-08-06T05:14:50;12.10;;;8.10;;
46563;SDS011;32291;52.010;4.446;2023-08-06T05:15:56;10.77;;;8.07;;
46563;SDS011;32291;52.010;4.446;2023-08-06T05:17:04;9.73;;;7.57;;
46563;SDS011;32291;52.010;4.446;2023-08-06T05:18:11;12.00;;;7.47;;
46563;SDS011;32291;52.010;4.446;2023-08-06T05:19:18;8.68;;;7.13;;
46563;SDS011;32291;52.010;4.446;2023-08-06T05:20:25;12.15;;;7.40;;
46563;SDS011;32291;52.010;4.446;2023-08-06T05:21:32;10.48;;;7.60;;
46563;SDS011;32291;52.010;4.446;2023-08-06T05:22:38;15.77;;;7.50;;
46563;SDS011;32291;52.010;4.446;2023-08-06T05:23:45;11.48;;;7.75;;
46563;SDS011;32291;52.010;4.446;2023-08-06T05:24:55;10.45;;;7.32;;
46563;SDS011;32291;52.010;4.446;2023-08-06T05:26:02;14.85;;;7.32;;
46563;SDS011;32291;52.010;4.446;2023-08-06T05:27:09;12.25;;;7.00;;
46563;SDS011;32291;52.010;4.446;2023-08-06T05:28:16;12.25;;;6.57;;
46563;SDS011;32291;52.010;4.446;2023-08-06T05:29:18;12.27;;;7.63;;
46563;SDS011;32291;52.010;4.446;2023-08-06T05:30:25;12.68;;;6.50;;
46563;SDS011;32291;52.010;4.446;2023-08-06T05:31:32;11.48;;;6.65;;
46563;SDS011;32291;52.010;4.446;2023-08-06T05:32:39;11.25;;;6.22;;
46563;SDS011;32291;52.010;4.446;2023-08-06T05:33:49;12.07;;;5.70;;
46563;SDS011;32291;52.010;4.446;2023-08-06T05:34:51;10.02;;;6.25;;
46563;SDS011;32291;52.010;4.446;2023-08-06T05:35:58;8.98;;;5.88;;
46563;SDS011;32291;52.010;4.446;2023-08-06T05:37:04;13.48;;;7.00;;
46563;SDS011;32291;52.010;4.446;2023-08-06T05:38:11;10.75;;;6.40;;
46563;SDS011;32291;52.010;4.446;2023-08-06T05:39:18;8.27;;;5.95;;
46563;SDS011;32291;52.010;4.446;2023-08-06T05:40:20;11.57;;;6.40;;
46563;SDS011;32291;52.010;4.446;2023-08-06T05:41:27;10.30;;;6.35;;
46563;SDS011;32291;52.010;4.446;2023-08-06T05:42:34;10.35;;;6.25;;
46563;SDS011;32291;52.010;4.446;2023-08-06T05:43:36;12.68;;;5.60;;
46563;SDS011;32291;52.010;4.446;2023-08-06T05:44:38;9.98;;;5.35;;
46563;SDS011;32291;52.010;4.446;2023-08-06T05:45:45;13.32;;;5.07;;
46563;SDS011;32291;52.010;4.446;2023-08-06T05:46:56;6.68;;;4.70;;
46563;SDS011;32291;52.010;4.446;2023-08-06T05:48:03;8.18;;;4.45;;
46563;SDS011;32291;52.010;4.446;2023-08-06T05:49:10;8.57;;;4.35;;
46563;SDS011;32291;52.010;4.446;2023-08-06T05:50:14;5.45;;;4.00;;
46563;SDS011;32291;52.010;4.446;2023-08-06T05:51:20;12.75;;;4.15;;
46563;SDS011;32291;52.010;4.446;2023-08-06T05:52:28;7.28;;;4.53;;
46563;SDS011;32291;52.010;4.446;2023-08-06T05:53:31;5.30;;;3.55;;
46563;SDS011;32291;52.010;4.446;2023-08-06T05:54:37;5.57;;;3.17;;
46563;SDS011;32291;52.010;4.446;2023-08-06T05:55:44;9.32;;;4.28;;
46563;SDS011;32291;52.010;4.446;2023-08-06T05:56:55;7.40;;;3.38;;
46563;SDS011;32291;52.010;4.446;2023-08-06T05:58:02;5.65;;;3.17;;
46563;SDS011;32291;52.010;4.446;2023-08-06T05:59:09;6.20;;;3.05;;
46563;SDS011;32291;52.010;4.446;2023-08-06T06:00:16;4.40;;;3.15;;
46563;SDS011;32291;52.010;4.446;2023-08-06T06:01:24;7.05;;;3.63;;
46563;SDS011;32291;52.010;4.446;2023-08-06T06:02:31;7.80;;;2.90;;
46563;SDS011;32291;52.010;4.446;2023-08-06T06:03:39;8.77;;;3.05;;
46563;SDS011;32291;52.010;4.446;2023-08-06T06:04:41;7.53;;;2.90;;
46563;SDS011;32291;52.010;4.446;2023-08-06T06:05:48;5.78;;;2.60;;
46563;SDS011;32291;52.010;4.446;2023-08-06T06:06:50;7.18;;;2.85;;
46563;SDS011;32291;52.010;4.446;2023-08-06T06:07:52;5.20;;;2.35;;
46563;SDS011;32291;52.010;4.446;2023-08-06T06:08:59;4.30;;;2.60;;
46563;SDS011;32291;52.010;4.446;2023-08-06T06:10:06;4.32;;;2.13;;
46563;SDS011;32291;52.010;4.446;2023-08-06T06:11:12;7.35;;;2.55;;
46563;SDS011;32291;52.010;4.446;2023-08-06T06:12:14;5.55;;;2.60;;
46563;SDS011;32291;52.010;4.446;2023-08-06T06:13:20;7.30;;;2.38;;
46563;SDS011;32291;52.010;4.446;2023-08-06T06:14:23;5.45;;;2.33;;
46563;SDS011;32291;52.010;4.446;2023-08-06T06:15:29;5.68;;;2.28;;
46563;SDS011;32291;52.010;4.446;2023-08-06T06:16:36;4.95;;;2.25;;
46563;SDS011;32291;52.010;4.446;2023-08-06T06:17:43;5.05;;;2.17;;
46563;SDS011;32291;52.010;4.446;2023-08-06T06:18:50;4.10;;;2.30;;
46563;SDS011;32291;52.010;4.446;2023-08-06T06:19:57;6.70;;;2.70;;
46563;SDS011;32291;52.010;4.446;2023-08-06T06:21:04;4.97;;;2.45;;
46563;SDS011;32291;52.010;4.446;2023-08-06T06:22:07;4.45;;;1.85;;
46563;SDS011;32291;52.010;4.446;2023-08-06T06:23:13;2.42;;;2.00;;
46563;SDS011;32291;52.010;4.446;2023-08-06T06:24:20;5.85;;;2.33;;
46563;SDS011;32291;52.010;4.446;2023-08-06T06:25:28;2.92;;;2.20;;
46563;SDS011;32291;52.010;4.446;2023-08-06T06:26:30;5.43;;;2.15;;
46563;SDS011;32291;52.010;4.446;2023-08-06T06:27:33;6.05;;;2.00;;
46563;SDS011;32291;52.010;4.446;2023-08-06T06:28:35;6.07;;;2.40;;
46563;SDS011;32291;52.010;4.446;2023-08-06T06:29:38;4.10;;;2.00;;
46563;SDS011;32291;52.010;4.446;2023-08-06T06:30:45;5.32;;;2.22;;
46563;SDS011;32291;52.010;4.446;2023-08-06T06:31:57;4.57;;;1.98;;
46563;SDS011;32291;52.010;4.446;2023-08-06T06:32:59;5.57;;;2.13;;
46563;SDS011;32291;52.010;4.446;2023-08-06T06:34:06;7.93;;;2.25;;
46563;SDS011;32291;52.010;4.446;2023-08-06T06:35:08;7.47;;;2.30;;
46563;SDS011;32291;52.010;4.446;2023-08-06T06:36:11;6.25;;;1.98;;
46563;SDS011;32291;52.010;4.446;2023-08-06T06:37:13;4.68;;;1.98;;
46563;SDS011;32291;52.010;4.446;2023-08-06T06:38:20;4.30;;;1.92;;
46563;SDS011;32291;52.010;4.446;2023-08-06T06:39:27;6.90;;;1.92;;
46563;SDS011;32291;52.010;4.446;2023-08-06T06:40:34;3.90;;;1.88;;